Time;durP1;ratioP1;P1;durP2;ratioP2;P2;SDS_P1;SDS_P2;PMS_P1;PMS_P2;Temp;Humidity;BMP_temperature;BMP_pressure;BME280_temperature;BME280_humidity;BME280_pressure;Samples;Min_cycle;Max_cycle;Signal;HPM_P1;HPM_P2
2022/05/19 00:01:07;;;;;;;8.77;7.23;;;17.10;97.30;;;;;;4999089;28;20441;-84
2022/05/19 00:03:35;;;;;;;9.27;6.97;;;17.10;97.30;;;;;;5000400;28;20449;-83
2022/05/19 00:06:02;;;;;;;8.00;6.67;;;17.10;97.30;;;;;;4997369;28;20453;-82
2022/05/19 00:08:28;;;;;;;10.23;7.20;;;17.10;97.30;;;;;;4997737;28;20417;-82
2022/05/19 00:10:57;;;;;;;8.87;7.00;;;17.10;97.30;;;;;;4996944;28;20829;-82
2022/05/19 00:13:24;;;;;;;11.83;7.27;;;17.00;97.30;;;;;;4997098;28;20926;-82
2022/05/19 00:15:50;;;;;;;9.47;7.63;;;17.00;97.30;;;;;;4998838;28;20455;-82
2022/05/19 00:18:16;;;;;;;13.03;6.70;;;16.90;97.30;;;;;;4997014;28;20425;-81
2022/05/19 00:20:42;;;;;;;10.13;7.50;;;16.90;97.30;;;;;;4996372;28;20733;-81
2022/05/19 00:23:07;;;;;;;9.97;7.20;;;16.90;97.30;;;;;;4996930;28;20208;-81
2022/05/19 00:25:33;;;;;;;9.57;6.63;;;16.90;97.30;;;;;;4996303;28;20328;-81
2022/05/19 00:27:59;;;;;;;8.90;7.30;;;16.90;97.30;;;;;;4996771;28;20170;-81
2022/05/19 00:30:25;;;;;;;13.67;7.17;;;16.80;97.30;;;;;;4996093;28;20428;-80
2022/05/19 00:32:51;;;;;;;13.13;7.40;;;16.80;97.30;;;;;;4998111;28;20531;-81
2022/05/19 00:35:16;;;;;;;13.80;8.27;;;16.80;97.30;;;;;;4996551;28;20201;-81
2022/05/19 00:37:42;;;;;;;10.73;7.80;;;16.70;97.30;;;;;;4996075;28;20648;-79
2022/05/19 00:40:10;;;;;;;8.70;6.87;;;16.60;97.30;;;;;;4998077;28;20221;-79
2022/05/19 00:42:44;;;;;;;12.53;7.43;;;16.60;97.30;;;;;;4997146;28;20170;-80
2022/05/19 00:45:16;;;;;;;10.83;7.30;;;16.60;97.30;;;;;;4995731;28;20429;-81
2022/05/19 00:48:19;;;;;;;12.43;7.43;;;16.50;97.30;;;;;;4996182;28;20424;-81
2022/05/19 00:51:06;;;;;;;12.60;7.40;;;16.50;97.30;;;;;;4994590;28;20543;-81
2022/05/19 00:53:41;;;;;;;10.37;6.90;;;16.50;97.30;;;;;;4995776;28;20408;-80
2022/05/19 00:56:20;;;;;;;13.00;7.70;;;16.40;97.30;;;;;;4995922;28;20440;-81
2022/05/19 00:58:53;;;;;;;12.17;7.33;;;16.40;97.30;;;;;;4995546;28;20428;-81
2022/05/19 01:01:19;;;;;;;11.43;7.30;;;16.40;97.30;;;;;;4997398;28;20776;-82
2022/05/19 01:03:52;;;;;;;12.80;7.80;;;16.40;97.30;;;;;;4997506;28;20421;-81
2022/05/19 01:06:19;;;;;;;11.27;7.90;;;16.30;97.30;;;;;;4995209;28;20197;-79
2022/05/19 01:08:45;;;;;;;10.33;7.37;;;16.30;97.30;;;;;;4997078;28;20452;-79
2022/05/19 01:11:13;;;;;;;12.13;8.80;;;16.30;97.30;;;;;;4995620;28;20457;-81
2022/05/19 01:13:39;;;;;;;11.63;7.10;;;16.30;97.30;;;;;;4996473;28;20177;-82
2022/05/19 01:16:07;;;;;;;11.30;7.10;;;16.30;97.30;;;;;;4995623;28;20822;-81
2022/05/19 01:18:35;;;;;;;11.50;7.70;;;16.20;97.30;;;;;;4995214;28;20201;-81
2022/05/19 01:21:00;;;;;;;10.40;7.13;;;16.20;97.30;;;;;;4995501;28;20903;-81
2022/05/19 01:23:48;;;;;;;13.63;7.67;;;16.20;97.30;;;;;;4995556;28;20424;-81
2022/05/19 01:26:43;;;;;;;11.53;7.50;;;16.10;97.30;;;;;;4995774;28;20245;-82
2022/05/19 01:29:11;;;;;;;10.73;7.37;;;16.00;97.30;;;;;;4995712;28;20969;-82
2022/05/19 01:31:44;;;;;;;11.63;7.40;;;16.00;97.30;;;;;;4995490;28;20467;-82
2022/05/19 01:34:10;;;;;;;12.37;7.10;;;16.00;97.30;;;;;;4996010;28;20440;-82
2022/05/19 01:36:36;;;;;;;9.83;7.03;;;16.00;97.30;;;;;;4995356;28;20437;-81
2022/05/19 01:39:15;;;;;;;9.93;7.03;;;15.90;97.30;;;;;;4995917;28;20177;-81
2022/05/19 01:42:07;;;;;;;8.80;7.00;;;15.90;97.30;;;;;;4997085;28;20417;-81
2022/05/19 01:44:57;;;;;;;9.77;7.53;;;15.90;97.30;;;;;;4995149;28;20428;-81
2022/05/19 01:47:25;;;;;;;10.63;7.63;;;16.00;97.30;;;;;;4995618;28;20444;-81
2022/05/19 01:50:03;;;;;;;10.47;7.63;;;16.00;97.30;;;;;;4995687;28;20505;-81
2022/05/19 01:52:36;;;;;;;18.10;8.13;;;16.00;97.30;;;;;;4995923;28;20998;-81
2022/05/19 01:55:11;;;;;;;9.00;7.07;;;15.90;97.30;;;;;;4995498;28;20432;-82
2022/05/19 01:58:03;;;;;;;10.63;7.43;;;15.90;97.30;;;;;;4994632;28;20499;-82
2022/05/19 02:00:30;;;;;;;12.77;7.10;;;15.90;97.30;;;;;;4996641;28;20429;-82
2022/05/19 02:03:24;;;;;;;11.70;7.33;;;15.90;97.30;;;;;;4997690;28;20413;-81
2022/05/19 02:06:05;;;;;;;11.40;6.47;;;15.80;97.30;;;;;;4999367;28;20436;-82
2022/05/19 02:08:48;;;;;;;12.07;7.70;;;15.70;97.30;;;;;;4998983;28;20450;-79
2022/05/19 02:11:21;;;;;;;7.70;6.70;;;15.60;97.30;;;;;;4992292;28;20464;-79
2022/05/19 02:13:47;;;;;;;10.37;7.73;;;15.60;97.30;;;;;;4995844;28;20413;-80
2022/05/19 02:16:15;;;;;;;11.30;7.20;;;15.60;97.30;;;;;;4995317;28;20477;-79
2022/05/19 02:18:43;;;;;;;9.33;7.10;;;15.60;97.30;;;;;;4995998;28;20712;-79
2022/05/19 02:21:09;;;;;;;10.53;7.87;;;15.60;97.30;;;;;;4997142;28;20507;-79
2022/05/19 02:23:36;;;;;;;9.67;7.43;;;15.60;97.30;;;;;;4995155;28;20432;-80
2022/05/19 02:26:02;;;;;;;8.97;7.70;;;15.50;97.30;;;;;;4994443;28;20560;-79
2022/05/19 02:28:32;;;;;;;11.87;9.00;;;15.50;97.30;;;;;;4994658;28;20508;-80
2022/05/19 02:30:59;;;;;;;10.67;8.80;;;15.40;97.30;;;;;;4994667;28;20458;-79
2022/05/19 02:33:26;;;;;;;11.60;8.07;;;15.30;97.30;;;;;;4994912;28;20421;-79
2022/05/19 02:35:52;;;;;;;10.70;8.00;;;15.30;97.30;;;;;;4994347;28;20433;-79
2022/05/19 02:38:20;;;;;;;10.00;8.03;;;15.20;97.30;;;;;;4994201;28;20923;-79
2022/05/19 02:40:46;;;;;;;9.60;8.03;;;15.10;97.30;;;;;;4994807;28;20423;-79
2022/05/19 02:43:13;;;;;;;11.20;8.10;;;15.10;97.30;;;;;;4994138;28;20788;-79
2022/05/19 02:45:39;;;;;;;15.50;8.90;;;15.00;97.30;;;;;;4994419;28;21005;-79
2022/05/19 02:48:06;;;;;;;11.73;8.77;;;14.90;97.30;;;;;;4994540;28;20424;-80
2022/05/19 02:50:32;;;;;;;13.93;9.10;;;14.90;97.30;;;;;;4994459;28;20541;-79
2022/05/19 02:52:58;;;;;;;13.77;8.80;;;14.90;97.30;;;;;;4994528;28;20449;-81
2022/05/19 02:55:25;;;;;;;13.80;7.77;;;14.80;97.30;;;;;;4995848;28;20425;-80
2022/05/19 02:57:50;;;;;;;13.13;8.83;;;14.80;97.30;;;;;;4994264;28;20190;-79
2022/05/19 03:00:19;;;;;;;11.70;8.47;;;14.80;97.30;;;;;;4994488;28;20414;-80
2022/05/19 03:02:46;;;;;;;10.97;8.40;;;14.80;97.30;;;;;;4994973;28;20182;-79
2022/05/19 03:05:18;;;;;;;12.03;8.53;;;14.70;97.30;;;;;;4994699;28;20441;-79
2022/05/19 03:07:44;;;;;;;10.23;7.80;;;14.70;97.30;;;;;;4994095;28;20965;-80
2022/05/19 03:10:10;;;;;;;18.73;9.03;;;14.70;97.30;;;;;;4995915;28;20503;-80
2022/05/19 03:12:35;;;;;;;10.10;8.57;;;14.60;97.30;;;;;;4994321;28;20645;-80
2022/05/19 03:15:01;;;;;;;11.90;8.27;;;14.60;97.30;;;;;;4993745;28;20220;-80
2022/05/19 03:17:27;;;;;;;11.73;8.30;;;14.60;97.30;;;;;;4993977;28;20178;-80
2022/05/19 03:19:54;;;;;;;11.73;8.23;;;14.60;97.30;;;;;;4994383;28;20529;-80
2022/05/19 03:22:20;;;;;;;11.33;8.60;;;14.60;97.30;;;;;;4994247;28;20634;-79
2022/05/19 03:24:46;;;;;;;12.30;7.97;;;14.60;97.30;;;;;;4994129;28;20552;-80
2022/05/19 03:27:12;;;;;;;13.70;8.83;;;14.60;97.30;;;;;;4993845;28;20477;-80
2022/05/19 03:29:37;;;;;;;12.47;8.50;;;14.60;97.30;;;;;;4994225;28;20216;-80
2022/05/19 03:32:03;;;;;;;10.17;8.50;;;14.60;97.30;;;;;;4993872;28;20214;-80
2022/05/19 03:34:29;;;;;;;14.30;8.80;;;14.60;97.30;;;;;;4993969;28;20273;-80
2022/05/19 03:36:55;;;;;;;10.27;8.03;;;14.50;97.30;;;;;;4995075;28;20480;-80
2022/05/19 03:39:21;;;;;;;8.93;7.50;;;14.50;97.30;;;;;;4994773;28;20186;-80
2022/05/19 03:41:47;;;;;;;11.03;8.67;;;14.50;97.30;;;;;;4995527;28;20184;-81
2022/05/19 03:44:13;;;;;;;10.83;8.97;;;14.40;97.30;;;;;;4994146;28;20914;-81
2022/05/19 03:46:39;;;;;;;10.10;8.13;;;14.40;97.30;;;;;;4994185;28;20441;-80
2022/05/19 03:49:05;;;;;;;9.50;7.90;;;14.40;97.30;;;;;;4994688;28;20424;-81
2022/05/19 03:51:32;;;;;;;12.70;8.60;;;14.40;97.30;;;;;;4993928;28;20475;-80
2022/05/19 03:53:58;;;;;;;10.83;7.77;;;14.30;97.30;;;;;;4995671;28;20213;-79
2022/05/19 03:56:25;;;;;;;11.30;8.40;;;14.40;97.30;;;;;;4995452;28;20487;-80
2022/05/19 03:58:50;;;;;;;10.90;7.80;;;14.40;97.30;;;;;;4993596;28;20417;-80
2022/05/19 04:01:18;;;;;;;16.40;9.77;;;14.40;97.30;;;;;;4993328;28;20433;-79
2022/05/19 04:03:44;;;;;;;12.13;7.80;;;14.40;97.30;;;;;;4991490;28;20305;-80
2022/05/19 04:06:10;;;;;;;16.70;9.43;;;14.40;97.30;;;;;;4986194;28;20472;-80
2022/05/19 04:08:35;;;;;;;11.27;8.40;;;14.50;97.30;;;;;;4992871;28;20529;-80
2022/05/19 04:11:02;;;;;;;11.37;8.40;;;14.50;97.30;;;;;;5008670;28;20460;-80
2022/05/19 04:13:28;;;;;;;13.20;8.13;;;14.50;97.30;;;;;;4994620;28;20174;-81
2022/05/19 04:15:54;;;;;;;15.33;8.80;;;14.50;97.30;;;;;;4993913;28;21022;-79
2022/05/19 04:18:21;;;;;;;10.30;8.40;;;14.50;97.30;;;;;;4992415;28;20178;-79
2022/05/19 04:20:47;;;;;;;11.97;8.13;;;14.50;97.30;;;;;;4998137;28;20429;-83
2022/05/19 04:23:13;;;;;;;12.17;8.00;;;14.50;97.30;;;;;;4998098;28;20421;-83
2022/05/19 04:25:40;;;;;;;17.97;8.33;;;14.50;97.30;;;;;;4998543;28;20226;-83
2022/05/19 04:28:06;;;;;;;11.40;8.13;;;14.50;97.30;;;;;;4998945;28;20425;-84
2022/05/19 04:30:32;;;;;;;9.27;7.20;;;14.60;97.30;;;;;;4997409;28;20428;-83
2022/05/19 04:32:57;;;;;;;13.73;7.80;;;14.60;97.30;;;;;;4995640;28;20192;-84
2022/05/19 04:35:23;;;;;;;10.83;8.13;;;14.60;97.30;;;;;;4996082;28;20206;-84
2022/05/19 04:37:49;;;;;;;13.20;7.17;;;14.60;97.30;;;;;;4998648;28;20178;-84
2022/05/19 04:40:17;;;;;;;11.23;7.00;;;14.70;97.30;;;;;;4997348;28;20181;-84
2022/05/19 04:42:44;;;;;;;12.90;7.40;;;14.70;97.30;;;;;;4995868;28;20505;-85
2022/05/19 04:45:12;;;;;;;13.70;7.70;;;14.80;97.30;;;;;;4996344;28;20440;-84
2022/05/19 04:47:38;;;;;;;11.63;8.23;;;14.80;97.30;;;;;;4998683;28;20447;-84
2022/05/19 04:50:07;;;;;;;13.37;7.53;;;14.90;97.30;;;;;;4998037;28;20416;-84
2022/05/19 04:52:33;;;;;;;12.23;7.77;;;14.90;97.30;;;;;;4996188;28;20456;-84
2022/05/19 04:54:59;;;;;;;10.77;8.07;;;15.00;97.30;;;;;;4995645;28;20427;-84
2022/05/19 04:57:24;;;;;;;11.17;7.13;;;15.00;97.30;;;;;;4996013;28;20421;-84
2022/05/19 04:59:50;;;;;;;14.10;6.93;;;15.10;97.30;;;;;;4995264;28;21050;-84
2022/05/19 05:02:16;;;;;;;8.70;6.73;;;15.20;97.30;;;;;;4995022;28;20186;-84
2022/05/19 05:04:41;;;;;;;8.73;6.80;;;15.30;97.30;;;;;;4995633;28;20186;-83
2022/05/19 05:07:07;;;;;;;12.13;6.97;;;15.30;97.30;;;;;;4996030;28;20211;-84
2022/05/19 05:09:33;;;;;;;11.40;7.17;;;15.40;97.30;;;;;;4997123;28;20240;-85
2022/05/19 05:11:59;;;;;;;12.70;6.83;;;15.50;97.30;;;;;;4998248;28;20212;-85
2022/05/19 05:14:24;;;;;;;8.77;6.73;;;15.60;97.30;;;;;;4997672;28;20482;-84
2022/05/19 05:16:52;;;;;;;10.07;6.33;;;15.70;97.30;;;;;;4996421;28;20198;-84
2022/05/19 05:19:22;;;;;;;7.70;5.60;;;15.70;97.30;;;;;;4996324;28;20182;-84
2022/05/19 05:21:55;;;;;;;10.17;6.23;;;15.80;97.30;;;;;;4995559;28;20441;-84
2022/05/19 05:24:21;;;;;;;9.13;6.30;;;15.90;97.30;;;;;;4994954;28;20483;-84
2022/05/19 05:26:46;;;;;;;11.93;5.93;;;16.00;97.30;;;;;;4995256;28;20453;-84
2022/05/19 05:29:12;;;;;;;8.00;5.30;;;16.10;97.30;;;;;;4995799;28;20184;-84
2022/05/19 05:31:38;;;;;;;9.90;5.87;;;16.20;97.30;;;;;;4996676;28;20245;-85
2022/05/19 05:34:04;;;;;;;10.27;5.77;;;16.30;97.30;;;;;;4996014;28;20524;-84
2022/05/19 05:36:30;;;;;;;12.73;6.47;;;16.40;97.30;;;;;;4996194;28;20201;-84
2022/05/19 05:38:56;;;;;;;16.20;5.60;;;16.50;97.30;;;;;;5003206;28;20485;-84
2022/05/19 05:41:22;;;;;;;16.43;6.43;;;16.60;97.30;;;;;;5002585;28;20186;-84
2022/05/19 05:43:47;;;;;;;9.57;5.90;;;16.70;97.30;;;;;;5004768;28;20497;-84
2022/05/19 05:46:15;;;;;;;8.83;5.40;;;16.80;97.30;;;;;;5003806;28;20281;-83
2022/05/19 05:48:41;;;;;;;5.73;4.80;;;16.90;97.30;;;;;;5002803;28;20191;-84
2022/05/19 05:51:09;;;;;;;8.73;4.83;;;17.00;97.30;;;;;;5003056;28;20522;-85
2022/05/19 05:53:36;;;;;;;13.20;6.33;;;17.00;97.30;;;;;;5003467;28;20476;-84
2022/05/19 05:56:06;;;;;;;8.30;4.93;;;17.10;97.30;;;;;;5003135;28;20440;-84
2022/05/19 05:58:32;;;;;;;8.83;5.23;;;17.20;97.30;;;;;;5003008;28;20758;-84
2022/05/19 06:00:58;;;;;;;9.50;5.10;;;17.30;97.30;;;;;;5003002;28;20484;-84
2022/05/19 06:03:24;;;;;;;6.37;4.70;;;17.40;97.30;;;;;;5002738;28;20507;-84
2022/05/19 06:05:51;;;;;;;8.63;4.77;;;17.50;97.30;;;;;;5002327;28;20601;-82
2022/05/19 06:08:17;;;;;;;7.17;4.83;;;17.70;97.30;;;;;;5000552;28;20427;-85
2022/05/19 06:10:43;;;;;;;9.97;5.20;;;17.80;96.20;;;;;;5001530;28;20236;-82
2022/05/19 06:13:09;;;;;;;8.43;4.57;;;17.90;95.50;;;;;;4999332;28;20208;-78
2022/05/19 06:15:35;;;;;;;6.00;4.37;;;18.00;95.30;;;;;;4998827;28;20437;-79
2022/05/19 06:18:01;;;;;;;10.57;4.77;;;18.10;95.80;;;;;;4998509;28;20424;-81
2022/05/19 06:20:27;;;;;;;5.90;4.50;;;18.20;94.80;;;;;;4998044;28;20439;-80
2022/05/19 06:22:53;;;;;;;6.97;4.03;;;18.30;94.50;;;;;;4998315;28;20174;-79
2022/05/19 06:25:22;;;;;;;5.00;4.20;;;18.40;94.10;;;;;;4999708;28;20462;-80
2022/05/19 06:27:49;;;;;;;7.27;4.33;;;18.50;94.50;;;;;;5014956;28;20253;-79
2022/05/19 06:30:16;;;;;;;8.83;4.40;;;18.60;94.70;;;;;;4997900;28;20431;-80
2022/05/19 06:32:43;;;;;;;4.80;3.90;;;18.70;93.70;;;;;;4997924;28;20469;-79
2022/05/19 06:35:14;;;;;;;3.73;3.53;;;18.80;93.90;;;;;;4997606;28;20449;-80
2022/05/19 06:37:40;;;;;;;7.60;4.03;;;18.90;94.50;;;;;;4999495;28;20902;-80
2022/05/19 06:40:07;;;;;;;5.80;4.30;;;19.00;93.80;;;;;;4997900;28;20417;-81
2022/05/19 06:42:33;;;;;;;6.97;3.90;;;19.00;93.40;;;;;;4998364;28;20177;-80
2022/05/19 06:44:59;;;;;;;6.60;4.47;;;19.10;92.40;;;;;;4997504;28;20989;-80
2022/05/19 06:47:24;;;;;;;8.43;4.03;;;19.20;93.00;;;;;;4998831;28;20420;-80
2022/05/19 06:49:51;;;;;;;9.70;4.30;;;19.30;92.40;;;;;;4994378;28;20429;-79
2022/05/19 06:52:24;;;;;;;6.43;4.13;;;19.40;90.90;;;;;;4996219;28;20683;-81
2022/05/19 06:54:52;;;;;;;9.77;4.00;;;19.50;90.20;;;;;;4994700;28;20413;-79
2022/05/19 06:57:19;;;;;;;7.50;3.93;;;19.60;90.90;;;;;;4994640;28;20708;-79
2022/05/19 06:59:45;;;;;;;6.33;4.20;;;19.70;90.80;;;;;;4993981;28;20413;-79
2022/05/19 07:02:12;;;;;;;6.03;3.70;;;19.80;91.80;;;;;;4995232;28;20429;-80
2022/05/19 07:04:38;;;;;;;5.63;4.03;;;19.90;90.70;;;;;;4994741;28;20420;-81
2022/05/19 07:07:06;;;;;;;4.43;3.80;;;20.10;90.30;;;;;;4995612;28;20441;-83
2022/05/19 07:09:34;;;;;;;4.50;3.37;;;20.20;90.10;;;;;;4995589;28;20178;-81
2022/05/19 07:12:00;;;;;;;6.23;3.23;;;20.30;89.30;;;;;;4995411;28;20456;-80
2022/05/19 07:14:26;;;;;;;5.00;3.60;;;20.40;88.40;;;;;;4994788;28;20425;-81
2022/05/19 07:16:52;;;;;;;6.73;3.30;;;20.50;87.70;;;;;;4994320;28;20972;-80
2022/05/19 07:22:05;;;;;;;6.00;3.53;;;20.60;89.30;;;;;;4997104;28;20205;-82
2022/05/19 07:24:31;;;;;;;7.00;3.63;;;20.80;88.50;;;;;;4995391;28;20460;-82
2022/05/19 07:26:58;;;;;;;7.60;3.20;;;20.90;86.90;;;;;;4995573;28;20456;-81
2022/05/19 07:29:25;;;;;;;4.33;3.60;;;20.90;85.20;;;;;;4994526;28;20421;-80
2022/05/19 07:31:52;;;;;;;4.20;3.27;;;21.00;86.40;;;;;;4996416;28;20461;-79
2022/05/19 07:34:21;;;;;;;3.70;3.00;;;21.10;85.30;;;;;;4994911;28;20448;-79
2022/05/19 07:36:47;;;;;;;6.77;3.40;;;21.20;86.20;;;;;;4993750;28;20441;-85
2022/05/19 07:39:13;;;;;;;6.70;3.40;;;21.20;84.60;;;;;;4994659;28;20711;-83
2022/05/19 07:41:39;;;;;;;6.00;3.20;;;21.30;84.50;;;;;;4994876;28;20181;-81
2022/05/19 07:44:07;;;;;;;4.70;3.43;;;21.40;84.20;;;;;;4994512;28;20508;-81
2022/05/19 07:46:34;;;;;;;4.20;3.27;;;21.50;85.20;;;;;;4995894;28;20432;-81
2022/05/19 07:49:00;;;;;;;8.40;3.17;;;21.60;83.50;;;;;;4994868;28;20468;-81
2022/05/19 07:51:28;;;;;;;7.50;3.37;;;21.70;83.80;;;;;;4994627;28;20465;-81
2022/05/19 07:53:55;;;;;;;5.90;3.00;;;21.70;85.40;;;;;;4997051;28;20409;-82
2022/05/19 07:56:21;;;;;;;12.73;3.77;;;21.80;84.10;;;;;;4994703;28;20435;-81
2022/05/19 07:58:47;;;;;;;5.60;3.47;;;22.00;84.10;;;;;;4994674;28;20960;-84
2022/05/19 08:01:14;;;;;;;5.20;2.93;;;22.10;83.80;;;;;;4994684;28;20421;-82
2022/05/19 08:03:41;;;;;;;6.43;3.43;;;22.20;83.30;;;;;;4994227;28;20421;-80
2022/05/19 08:06:08;;;;;;;4.30;3.10;;;22.30;83.10;;;;;;4994212;28;20506;-83
2022/05/19 08:08:35;;;;;;;8.87;3.00;;;22.40;82.00;;;;;;4994286;28;20416;-81
2022/05/19 08:11:01;;;;;;;5.63;3.30;;;22.50;81.20;;;;;;4993984;28;20463;-80
2022/05/19 08:16:11;;;;;;;3.87;2.90;;;22.70;80.90;;;;;;4995018;28;21089;-86
2022/05/19 08:18:36;;;;;;;6.20;3.60;;;22.80;81.10;;;;;;4992397;28;20496;-85
2022/05/19 08:21:06;;;;;;;5.50;3.07;;;22.90;80.20;;;;;;4992291;28;20420;-85
2022/05/19 08:23:34;;;;;;;4.00;2.80;;;23.00;80.20;;;;;;4991849;28;20528;-85
2022/05/19 08:26:01;;;;;;;4.60;2.97;;;23.10;80.90;;;;;;4990940;28;20481;-85
2022/05/19 08:28:30;;;;;;;4.50;2.77;;;23.30;77.70;;;;;;4991095;28;20431;-85
2022/05/19 08:31:00;;;;;;;2.93;2.43;;;23.40;80.10;;;;;;4990886;28;20457;-86
2022/05/19 08:33:26;;;;;;;6.43;2.77;;;23.40;77.70;;;;;;4991153;28;20417;-86
2022/05/19 08:35:52;;;;;;;5.87;2.57;;;23.50;78.60;;;;;;4990897;28;20480;-84
2022/05/19 08:38:19;;;;;;;3.27;2.23;;;23.60;77.90;;;;;;4991233;28;20417;-87
2022/05/19 08:41:04;;;;;;;3.00;2.47;;;23.70;77.60;;;;;;4991926;28;20202;-86
2022/05/19 08:43:54;;;;;;;7.23;2.80;;;23.80;77.60;;;;;;4990908;28;20781;-85
2022/05/19 08:46:25;;;;;;;4.60;2.70;;;23.90;79.20;;;;;;4990450;28;20520;-85
2022/05/19 08:48:53;;;;;;;3.77;2.50;;;24.00;77.00;;;;;;4990850;28;20418;-85
2022/05/19 08:51:25;;;;;;;3.70;2.20;;;24.00;76.60;;;;;;4989985;28;20460;-85
2022/05/19 08:53:54;;;;;;;5.37;2.23;;;24.10;76.10;;;;;;4992226;28;20416;-85
2022/05/19 08:56:32;;;;;;;7.73;2.60;;;24.20;76.40;;;;;;4991013;28;20455;-87
2022/05/19 08:59:26;;;;;;;5.40;2.20;;;24.20;76.00;;;;;;4992254;28;20449;-85
2022/05/19 09:02:03;;;;;;;3.70;2.40;;;24.20;76.00;;;;;;5007452;28;20970;-86
2022/05/19 09:04:51;;;;;;;5.23;2.40;;;24.30;76.20;;;;;;4991283;28;20420;-86
2022/05/19 09:10:18;;;;;;;3.13;2.33;;;24.40;75.70;;;;;;4992016;28;21156;-86
2022/05/19 09:12:47;;;;;;;7.30;2.30;;;24.40;76.80;;;;;;4989682;28;21020;-85
2022/05/19 09:15:13;;;;;;;6.40;2.60;;;24.50;76.20;;;;;;4990080;28;20433;-86
2022/05/19 09:17:43;;;;;;;4.30;2.93;;;24.60;75.00;;;;;;4990155;28;20467;-86
2022/05/19 09:20:44;;;;;;;2.93;2.10;;;24.70;73.80;;;;;;4991063;28;20213;-86
2022/05/19 09:23:10;;;;;;;3.27;2.40;;;24.90;72.90;;;;;;5004456;28;20452;-85
2022/05/19 09:25:43;;;;;;;5.60;2.30;;;25.00;74.40;;;;;;4990382;28;20535;-85
2022/05/19 09:28:12;;;;;;;3.73;2.00;;;25.10;73.70;;;;;;4990605;28;20417;-89
2022/05/19 09:30:45;;;;;;;2.37;2.00;;;25.10;73.20;;;;;;4990710;28;20424;-85
2022/05/19 09:33:21;;;;;;;2.33;2.20;;;25.20;72.20;;;;;;4993265;28;20417;-86
2022/05/19 09:35:54;;;;;;;2.60;2.10;;;25.20;71.40;;;;;;4990906;28;20447;-85
2022/05/19 09:38:36;;;;;;;5.43;2.40;;;25.30;70.70;;;;;;4990811;28;20779;-84
2022/05/19 09:41:07;;;;;;;4.00;1.70;;;25.40;72.30;;;;;;4990457;28;20471;-86
2022/05/19 09:43:36;;;;;;;2.83;1.83;;;25.50;70.30;;;;;;4991946;28;20918;-85
2022/05/19 09:46:14;;;;;;;3.13;2.20;;;25.60;70.20;;;;;;4990162;28;20817;-85
2022/05/19 09:48:44;;;;;;;3.43;1.90;;;25.70;70.50;;;;;;4990839;28;20500;-86
2022/05/19 09:51:14;;;;;;;5.53;1.97;;;25.70;69.90;;;;;;4989848;28;20460;-85
2022/05/19 09:53:46;;;;;;;2.40;2.07;;;25.80;71.20;;;;;;4989829;28;20777;-85
2022/05/19 09:56:15;;;;;;;2.50;1.93;;;25.80;69.60;;;;;;4990332;28;20452;-85
2022/05/19 09:58:46;;;;;;;3.07;2.00;;;25.90;69.20;;;;;;4990617;28;20421;-85
2022/05/19 10:01:19;;;;;;;6.63;2.40;;;26.00;69.00;;;;;;4989948;28;20905;-86
2022/05/19 10:03:53;;;;;;;4.00;2.00;;;26.10;69.20;;;;;;4989543;28;20424;-86
2022/05/19 10:06:23;;;;;;;3.50;1.90;;;26.10;68.70;;;;;;4989363;28;20433;-85
2022/05/19 10:08:59;;;;;;;5.43;2.40;;;26.20;70.50;;;;;;4991187;28;20413;-87
2022/05/19 10:11:30;;;;;;;3.10;2.23;;;26.20;69.40;;;;;;4989956;28;20986;-85
2022/05/19 10:14:03;;;;;;;4.30;2.20;;;26.30;69.70;;;;;;4989897;28;20483;-85
2022/05/19 10:16:49;;;;;;;3.50;2.00;;;26.40;71.60;;;;;;4989341;28;20441;-86
2022/05/19 10:19:23;;;;;;;2.30;2.10;;;26.50;72.10;;;;;;4994781;28;20413;-84
2022/05/19 10:21:53;;;;;;;2.57;1.90;;;26.50;70.90;;;;;;4995102;28;20417;-86
2022/05/19 10:24:27;;;;;;;5.80;2.80;;;26.70;71.20;;;;;;4996613;28;20652;-84
2022/05/19 10:33:23;;;;;;;2.60;2.00;;;26.80;72.60;;;;;;4999462;28;20588;-84
2022/05/19 10:36:15;;;;;;;8.20;2.40;;;27.00;74.40;;;;;;4997957;28;20464;-84
2022/05/19 10:39:04;;;;;;;5.40;2.77;;;27.10;75.20;;;;;;4990972;28;20432;-84
2022/05/19 10:41:53;;;;;;;3.50;2.57;;;27.10;74.60;;;;;;4948547;28;20464;-85
2022/05/19 10:44:43;;;;;;;5.77;2.80;;;27.10;74.60;;;;;;4950806;28;20457;-84
2022/05/19 10:47:40;;;;;;;4.37;2.73;;;27.10;75.50;;;;;;4979807;28;20473;-84
2022/05/19 10:50:18;;;;;;;3.60;2.23;;;27.00;75.10;;;;;;4978258;28;20430;-86
2022/05/19 10:53:00;;;;;;;3.47;2.40;;;26.90;74.10;;;;;;4977875;28;20872;-84
2022/05/19 10:55:50;;;;;;;5.70;2.60;;;26.90;75.30;;;;;;4978104;28;20453;-84
2022/05/19 10:58:55;;;;;;;2.83;2.63;;;26.90;75.30;;;;;;4977735;28;20473;-86
2022/05/19 11:01:47;;;;;;;4.53;2.50;;;26.90;77.00;;;;;;4970345;28;20426;-83
2022/05/19 11:04:43;;;;;;;5.27;2.67;;;27.00;76.60;;;;;;4977326;28;20420;-84
2022/05/19 11:07:30;;;;;;;6.10;2.70;;;27.00;74.60;;;;;;4978989;28;20461;-85
2022/05/19 11:10:41;;;;;;;7.27;2.80;;;27.20;76.20;;;;;;4977915;28;20492;-85
2022/05/19 11:13:13;;;;;;;3.40;2.90;;;27.30;73.50;;;;;;4974678;28;20444;-84
2022/05/19 11:15:47;;;;;;;3.40;2.50;;;27.40;74.00;;;;;;4976556;28;20848;-86
2022/05/19 11:18:29;;;;;;;3.67;2.50;;;27.40;75.20;;;;;;4978726;28;20955;-85
2022/05/19 11:21:03;;;;;;;3.53;2.77;;;27.50;73.80;;;;;;4977803;28;20398;-83
2022/05/19 11:23:39;;;;;;;2.60;2.40;;;27.40;72.20;;;;;;4976339;28;20442;-84
2022/05/19 11:26:25;;;;;;;4.50;2.40;;;27.50;73.30;;;;;;4976833;28;20505;-84
2022/05/19 11:28:55;;;;;;;3.50;3.33;;;27.60;71.80;;;;;;4976805;28;21007;-84
2022/05/19 11:31:32;;;;;;;3.13;2.50;;;27.60;72.90;;;;;;4976587;28;20449;-84
2022/05/19 11:34:01;;;;;;;8.17;2.40;;;27.70;74.00;;;;;;4977057;28;20390;-85
2022/05/19 11:36:36;;;;;;;3.13;2.20;;;27.70;72.60;;;;;;4977052;28;20441;-84
2022/05/19 11:39:09;;;;;;;4.93;2.30;;;27.70;70.00;;;;;;4994666;28;20400;-85
2022/05/19 11:41:36;;;;;;;2.77;2.33;;;27.80;69.20;;;;;;4996223;28;20433;-85
2022/05/19 11:44:05;;;;;;;7.10;2.40;;;28.00;70.70;;;;;;4994539;28;20809;-86
2022/05/19 11:46:37;;;;;;;3.20;2.10;;;28.10;70.80;;;;;;4993868;28;20441;-86
2022/05/19 11:55:18;;;;;;;2.80;2.20;;;28.70;70.40;;;;;;4996094;28;20532;-86
2022/05/19 11:58:22;;;;;;;2.60;2.40;;;28.80;68.60;;;;;;4994657;28;20953;-84
2022/05/19 12:00:56;;;;;;;5.37;2.17;;;28.90;67.90;;;;;;4995350;28;20424;-84
2022/05/19 12:03:28;;;;;;;2.30;2.10;;;28.90;67.70;;;;;;4995302;28;20480;-84
2022/05/19 12:05:58;;;;;;;4.33;2.03;;;28.90;65.30;;;;;;4997103;28;20439;-84
2022/05/19 12:08:35;;;;;;;7.87;2.20;;;28.90;68.90;;;;;;4995444;28;20943;-84
2022/05/19 12:11:31;;;;;;;2.40;1.87;;;29.00;68.30;;;;;;4995870;28;20449;-84
2022/05/19 12:14:25;;;;;;;2.43;2.20;;;29.20;67.90;;;;;;4995167;28;20406;-85
2022/05/19 12:17:15;;;;;;;3.10;2.17;;;29.20;66.50;;;;;;4995276;28;20467;-84
2022/05/19 12:19:55;;;;;;;3.70;2.03;;;29.20;65.70;;;;;;4995637;28;20417;-85
2022/05/19 12:22:32;;;;;;;5.03;1.90;;;29.30;66.60;;;;;;4996356;28;20412;-84
2022/05/19 12:25:01;;;;;;;3.50;1.70;;;29.40;65.90;;;;;;4995490;28;20523;-84
2022/05/19 12:27:36;;;;;;;2.53;1.97;;;29.40;66.90;;;;;;4996846;28;20429;-83
2022/05/19 12:33:26;;;;;;;2.20;2.10;;;29.30;65.80;;;;;;4998482;28;20593;-85
2022/05/19 12:35:59;;;;;;;4.80;2.00;;;29.20;68.00;;;;;;4996873;28;20472;-85
2022/05/19 12:38:40;;;;;;;2.90;2.00;;;29.20;68.00;;;;;;4996950;28;21041;-84
2022/05/19 12:41:08;;;;;;;6.17;2.23;;;29.30;67.90;;;;;;4996763;28;20787;-85
2022/05/19 12:43:53;;;;;;;3.30;1.87;;;29.30;67.60;;;;;;4994314;28;20723;-84
2022/05/19 12:47:03;;;;;;;7.57;1.93;;;29.30;67.40;;;;;;4993010;28;20806;-86
2022/05/19 12:49:31;;;;;;;3.20;1.97;;;29.30;66.00;;;;;;4982247;28;20427;-85
2022/05/19 12:52:01;;;;;;;4.53;1.93;;;29.20;66.80;;;;;;4994102;28;20470;-84
2022/05/19 12:54:31;;;;;;;6.17;2.10;;;29.20;69.00;;;;;;4994666;28;20463;-86
2022/05/19 12:57:25;;;;;;;11.50;2.10;;;29.20;69.80;;;;;;4994300;28;20436;-84
2022/05/19 13:00:06;;;;;;;4.47;1.87;;;29.00;67.90;;;;;;4998362;28;20476;-85
2022/05/19 13:02:47;;;;;;;2.47;1.87;;;29.00;67.70;;;;;;4994580;28;20423;-85
2022/05/19 13:05:46;;;;;;;2.90;2.07;;;29.00;66.90;;;;;;4992701;28;20444;-84
2022/05/19 13:08:25;;;;;;;2.10;1.90;;;29.00;66.90;;;;;;4976171;28;20421;-84
2022/05/19 13:10:52;;;;;;;3.40;2.00;;;29.20;68.60;;;;;;4993537;28;20448;-85
2022/05/19 13:13:32;;;;;;;3.63;2.60;;;29.30;69.50;;;;;;4993496;28;20427;-85
2022/05/19 13:16:09;;;;;;;4.63;2.03;;;29.60;67.60;;;;;;4992881;28;20475;-84
2022/05/19 13:18:39;;;;;;;3.80;2.17;;;29.70;68.20;;;;;;4992010;28;20445;-85
2022/05/19 13:21:12;;;;;;;7.83;2.10;;;29.80;69.40;;;;;;4992043;28;20992;-84
2022/05/19 13:23:40;;;;;;;3.50;1.97;;;29.90;68.20;;;;;;4990107;28;20457;-84
2022/05/19 13:26:25;;;;;;;4.53;2.07;;;30.00;68.50;;;;;;4990896;28;20479;-86
2022/05/19 13:32:02;;;;;;;4.37;1.97;;;30.20;67.20;;;;;;4991980;28;20462;-85